sensor_id;sensor_type;location;lat;lon;timestamp;temperature;humidity
26909;DHT22;14477;51.038;4.588;2022-11-20T00:01:22;6.80;99.90
26909;DHT22;14477;51.038;4.588;2022-11-20T00:03:48;6.80;99.90
26909;DHT22;14477;51.038;4.588;2022-11-20T00:06:16;6.80;99.90
26909;DHT22;14477;51.038;4.588;2022-11-20T00:08:43;6.80;99.90
26909;DHT22;14477;51.038;4.588;2022-11-20T00:11:17;6.80;99.90
26909;DHT22;14477;51.038;4.588;2022-11-20T00:13:44;6.80;99.90
26909;DHT22;14477;51.038;4.588;2022-11-20T00:16:11;6.80;99.90
26909;DHT22;14477;51.038;4.588;2022-11-20T00:18:37;6.80;99.90
26909;DHT22;14477;51.038;4.588;2022-11-20T00:21:11;6.80;99.90
26909;DHT22;14477;51.038;4.588;2022-11-20T00:23:36;6.80;99.90
26909;DHT22;14477;51.038;4.588;2022-11-20T00:26:07;6.80;99.90
26909;DHT22;14477;51.038;4.588;2022-11-20T00:28:33;6.80;99.90
26909;DHT22;14477;51.038;4.588;2022-11-20T00:31:08;6.80;99.90
26909;DHT22;14477;51.038;4.588;2022-11-20T00:33:34;6.80;99.90
26909;DHT22;14477;51.038;4.588;2022-11-20T00:36:05;6.80;99.90
26909;DHT22;14477;51.038;4.588;2022-11-20T00:38:31;6.80;99.90
26909;DHT22;14477;51.038;4.588;2022-11-20T00:40:58;6.80;99.90
26909;DHT22;14477;51.038;4.588;2022-11-20T00:43:24;6.80;99.90
26909;DHT22;14477;51.038;4.588;2022-11-20T00:45:51;6.80;99.90
26909;DHT22;14477;51.038;4.588;2022-11-20T00:48:21;6.80;99.90
26909;DHT22;14477;51.038;4.588;2022-11-20T00:50:46;6.80;99.90
26909;DHT22;14477;51.038;4.588;2022-11-20T00:53:12;6.80;99.90
26909;DHT22;14477;51.038;4.588;2022-11-20T00:55:37;6.80;99.90
26909;DHT22;14477;51.038;4.588;2022-11-20T00:58:03;6.80;99.90
26909;DHT22;14477;51.038;4.588;2022-11-20T01:00:29;6.80;99.90
26909;DHT22;14477;51.038;4.588;2022-11-20T01:02:55;6.90;99.90
26909;DHT22;14477;51.038;4.588;2022-11-20T01:05:21;6.80;99.90
26909;DHT22;14477;51.038;4.588;2022-11-20T01:07:47;6.90;99.90
26909;DHT22;14477;51.038;4.588;2022-11-20T01:10:12;6.90;99.90
26909;DHT22;14477;51.038;4.588;2022-11-20T01:12:38;6.80;99.90
26909;DHT22;14477;51.038;4.588;2022-11-20T01:15:04;6.90;99.90
26909;DHT22;14477;51.038;4.588;2022-11-20T01:17:31;6.90;99.90
26909;DHT22;14477;51.038;4.588;2022-11-20T01:19:57;6.90;99.90
26909;DHT22;14477;51.038;4.588;2022-11-20T01:22:22;6.90;99.90
26909;DHT22;14477;51.038;4.588;2022-11-20T01:24:48;6.90;99.90
26909;DHT22;14477;51.038;4.588;2022-11-20T01:27:14;6.80;99.90
26909;DHT22;14477;51.038;4.588;2022-11-20T01:29:39;6.90;99.90
26909;DHT22;14477;51.038;4.588;2022-11-20T01:32:05;6.80;99.90
26909;DHT22;14477;51.038;4.588;2022-11-20T01:34:30;6.80;99.90
26909;DHT22;14477;51.038;4.588;2022-11-20T01:36:56;6.90;99.90
26909;DHT22;14477;51.038;4.588;2022-11-20T01:39:24;6.90;99.90
26909;DHT22;14477;51.038;4.588;2022-11-20T01:41:52;6.90;99.90
26909;DHT22;14477;51.038;4.588;2022-11-20T01:44:51;6.90;99.90
26909;DHT22;14477;51.038;4.588;2022-11-20T01:50:04;6.90;99.90
26909;DHT22;14477;51.038;4.588;2022-11-20T01:52:36;6.90;99.90
26909;DHT22;14477;51.038;4.588;2022-11-20T01:55:07;6.80;99.90
26909;DHT22;14477;51.038;4.588;2022-11-20T01:57:35;6.80;99.90
26909;DHT22;14477;51.038;4.588;2022-11-20T02:00:06;6.80;99.90
26909;DHT22;14477;51.038;4.588;2022-11-20T02:02:32;6.80;99.90
26909;DHT22;14477;51.038;4.588;2022-11-20T02:05:02;6.80;99.90
26909;DHT22;14477;51.038;4.588;2022-11-20T02:07:30;6.80;99.90
26909;DHT22;14477;51.038;4.588;2022-11-20T02:09:56;6.80;99.90
26909;DHT22;14477;51.038;4.588;2022-11-20T02:12:21;6.80;99.90
26909;DHT22;14477;51.038;4.588;2022-11-20T02:15:06;6.80;99.90
26909;DHT22;14477;51.038;4.588;2022-11-20T02:17:31;6.80;99.90
26909;DHT22;14477;51.038;4.588;2022-11-20T02:19:57;6.80;99.90
26909;DHT22;14477;51.038;4.588;2022-11-20T02:22:36;6.80;99.90
26909;DHT22;14477;51.038;4.588;2022-11-20T02:25:05;6.70;99.90
26909;DHT22;14477;51.038;4.588;2022-11-20T02:27:32;6.70;99.90
26909;DHT22;14477;51.038;4.588;2022-11-20T02:30:02;6.70;99.90
26909;DHT22;14477;51.038;4.588;2022-11-20T02:32:31;6.70;99.90
26909;DHT22;14477;51.038;4.588;2022-11-20T02:34:58;6.70;99.90
26909;DHT22;14477;51.038;4.588;2022-11-20T02:37:29;6.70;99.90
26909;DHT22;14477;51.038;4.588;2022-11-20T02:39:55;6.60;99.90
26909;DHT22;14477;51.038;4.588;2022-11-20T02:42:21;6.60;99.90
26909;DHT22;14477;51.038;4.588;2022-11-20T02:44:47;6.60;99.90
26909;DHT22;14477;51.038;4.588;2022-11-20T02:47:13;6.50;99.90
26909;DHT22;14477;51.038;4.588;2022-11-20T02:49:38;6.50;99.90
26909;DHT22;14477;51.038;4.588;2022-11-20T02:52:04;6.50;99.90
26909;DHT22;14477;51.038;4.588;2022-11-20T02:54:29;6.50;99.90
26909;DHT22;14477;51.038;4.588;2022-11-20T02:56:55;6.50;99.90
26909;DHT22;14477;51.038;4.588;2022-11-20T02:59:22;6.50;99.90
26909;DHT22;14477;51.038;4.588;2022-11-20T03:01:47;6.50;99.90
26909;DHT22;14477;51.038;4.588;2022-11-20T03:04:13;6.50;99.90
26909;DHT22;14477;51.038;4.588;2022-11-20T03:06:38;6.50;99.90
26909;DHT22;14477;51.038;4.588;2022-11-20T03:09:04;6.50;99.90
26909;DHT22;14477;51.038;4.588;2022-11-20T03:11:30;6.50;99.90
26909;DHT22;14477;51.038;4.588;2022-11-20T03:13:56;6.50;99.90
26909;DHT22;14477;51.038;4.588;2022-11-20T03:16:23;6.60;99.90
26909;DHT22;14477;51.038;4.588;2022-11-20T03:18:49;6.60;99.90
26909;DHT22;14477;51.038;4.588;2022-11-20T03:21:17;6.60;99.90
26909;DHT22;14477;51.038;4.588;2022-11-20T03:23:42;6.60;99.90
26909;DHT22;14477;51.038;4.588;2022-11-20T03:26:15;6.60;99.90
26909;DHT22;14477;51.038;4.588;2022-11-20T03:28:45;6.60;99.90
26909;DHT22;14477;51.038;4.588;2022-11-20T03:31:13;6.60;99.90
26909;DHT22;14477;51.038;4.588;2022-11-20T03:33:40;6.60;99.90
26909;DHT22;14477;51.038;4.588;2022-11-20T03:36:09;6.60;99.90
26909;DHT22;14477;51.038;4.588;2022-11-20T03:38:35;6.70;99.90
26909;DHT22;14477;51.038;4.588;2022-11-20T03:41:03;6.70;99.90
26909;DHT22;14477;51.038;4.588;2022-11-20T03:43:30;6.60;99.90
26909;DHT22;14477;51.038;4.588;2022-11-20T03:45:56;6.70;99.90
26909;DHT22;14477;51.038;4.588;2022-11-20T03:48:21;6.70;99.90
26909;DHT22;14477;51.038;4.588;2022-11-20T03:50:47;6.70;99.90
26909;DHT22;14477;51.038;4.588;2022-11-20T03:53:14;6.70;99.90
26909;DHT22;14477;51.038;4.588;2022-11-20T03:55:40;6.70;99.90
26909;DHT22;14477;51.038;4.588;2022-11-20T03:58:05;6.70;99.90
26909;DHT22;14477;51.038;4.588;2022-11-20T04:00:31;6.70;99.90
26909;DHT22;14477;51.038;4.588;2022-11-20T04:03:00;6.70;99.90
26909;DHT22;14477;51.038;4.588;2022-11-20T04:05:26;6.70;99.90
26909;DHT22;14477;51.038;4.588;2022-11-20T04:07:52;6.70;99.90
26909;DHT22;14477;51.038;4.588;2022-11-20T04:10:18;6.70;99.90
26909;DHT22;14477;51.038;4.588;2022-11-20T04:12:43;6.70;99.90
26909;DHT22;14477;51.038;4.588;2022-11-20T04:15:09;6.70;99.90
26909;DHT22;14477;51.038;4.588;2022-11-20T04:17:35;6.60;99.90
26909;DHT22;14477;51.038;4.588;2022-11-20T04:20:01;6.70;99.90
26909;DHT22;14477;51.038;4.588;2022-11-20T04:22:26;6.70;99.90
26909;DHT22;14477;51.038;4.588;2022-11-20T04:24:52;6.70;99.90
26909;DHT22;14477;51.038;4.588;2022-11-20T04:27:18;6.70;99.90
26909;DHT22;14477;51.038;4.588;2022-11-20T04:29:43;6.70;99.90
26909;DHT22;14477;51.038;4.588;2022-11-20T04:32:09;6.70;99.90
26909;DHT22;14477;51.038;4.588;2022-11-20T04:34:35;6.70;99.90
26909;DHT22;14477;51.038;4.588;2022-11-20T04:37:00;6.70;99.90
26909;DHT22;14477;51.038;4.588;2022-11-20T04:39:26;6.70;99.90
26909;DHT22;14477;51.038;4.588;2022-11-20T04:41:52;6.70;99.90
26909;DHT22;14477;51.038;4.588;2022-11-20T04:44:37;6.70;99.90
26909;DHT22;14477;51.038;4.588;2022-11-20T04:47:03;6.70;99.90
26909;DHT22;14477;51.038;4.588;2022-11-20T04:49:29;6.80;99.90
26909;DHT22;14477;51.038;4.588;2022-11-20T04:51:54;6.70;99.90
26909;DHT22;14477;51.038;4.588;2022-11-20T04:54:20;6.70;99.90
26909;DHT22;14477;51.038;4.588;2022-11-20T04:56:47;6.70;99.90
26909;DHT22;14477;51.038;4.588;2022-11-20T04:59:13;6.70;99.90
26909;DHT22;14477;51.038;4.588;2022-11-20T05:01:39;6.70;99.90
26909;DHT22;14477;51.038;4.588;2022-11-20T05:04:05;6.70;99.90
26909;DHT22;14477;51.038;4.588;2022-11-20T05:06:31;6.70;99.90
26909;DHT22;14477;51.038;4.588;2022-11-20T05:08:57;6.70;99.90
26909;DHT22;14477;51.038;4.588;2022-11-20T05:11:23;6.60;99.90
26909;DHT22;14477;51.038;4.588;2022-11-20T05:13:50;6.60;99.90
26909;DHT22;14477;51.038;4.588;2022-11-20T05:16:23;6.60;99.90
26909;DHT22;14477;51.038;4.588;2022-11-20T05:18:50;6.60;99.90
26909;DHT22;14477;51.038;4.588;2022-11-20T05:21:16;6.60;99.90
26909;DHT22;14477;51.038;4.588;2022-11-20T05:23:43;6.60;99.90
26909;DHT22;14477;51.038;4.588;2022-11-20T05:26:16;6.60;99.90
26909;DHT22;14477;51.038;4.588;2022-11-20T05:28:43;6.60;99.90
26909;DHT22;14477;51.038;4.588;2022-11-20T05:31:15;6.60;99.90
26909;DHT22;14477;51.038;4.588;2022-11-20T05:33:42;6.60;99.90
26909;DHT22;14477;51.038;4.588;2022-11-20T05:36:08;6.60;99.90
26909;DHT22;14477;51.038;4.588;2022-11-20T05:38:34;6.60;99.90
26909;DHT22;14477;51.038;4.588;2022-11-20T05:41:08;6.60;99.90
26909;DHT22;14477;51.038;4.588;2022-11-20T05:43:35;6.60;99.90
26909;DHT22;14477;51.038;4.588;2022-11-20T05:46:01;6.60;99.90
26909;DHT22;14477;51.038;4.588;2022-11-20T05:48:27;6.70;99.90
26909;DHT22;14477;51.038;4.588;2022-11-20T05:50:53;6.70;99.90
26909;DHT22;14477;51.038;4.588;2022-11-20T05:53:18;6.70;99.90
26909;DHT22;14477;51.038;4.588;2022-11-20T05:55:44;6.70;99.90
26909;DHT22;14477;51.038;4.588;2022-11-20T05:58:09;6.70;99.90
26909;DHT22;14477;51.038;4.588;2022-11-20T06:00:35;6.70;99.90
26909;DHT22;14477;51.038;4.588;2022-11-20T06:03:01;6.70;99.90
26909;DHT22;14477;51.038;4.588;2022-11-20T06:05:27;6.70;99.90
26909;DHT22;14477;51.038;4.588;2022-11-20T06:07:53;6.70;99.90
26909;DHT22;14477;51.038;4.588;2022-11-20T06:10:18;6.70;99.90
26909;DHT22;14477;51.038;4.588;2022-11-20T06:12:44;6.60;99.90
26909;DHT22;14477;51.038;4.588;2022-11-20T06:15:10;6.60;99.90
26909;DHT22;14477;51.038;4.588;2022-11-20T06:17:35;6.60;99.90
26909;DHT22;14477;51.038;4.588;2022-11-20T06:20:01;6.60;99.90
26909;DHT22;14477;51.038;4.588;2022-11-20T06:22:26;6.60;99.90
26909;DHT22;14477;51.038;4.588;2022-11-20T06:24:52;6.50;99.90
26909;DHT22;14477;51.038;4.588;2022-11-20T06:27:18;6.50;99.90
26909;DHT22;14477;51.038;4.588;2022-11-20T06:29:43;6.40;99.90
26909;DHT22;14477;51.038;4.588;2022-11-20T06:32:09;6.40;99.90
26909;DHT22;14477;51.038;4.588;2022-11-20T06:34:34;6.30;99.90
26909;DHT22;14477;51.038;4.588;2022-11-20T06:37:00;6.30;99.90
26909;DHT22;14477;51.038;4.588;2022-11-20T06:39:26;6.20;99.90
26909;DHT22;14477;51.038;4.588;2022-11-20T06:41:51;6.20;99.90
26909;DHT22;14477;51.038;4.588;2022-11-20T06:44:17;6.10;99.90
26909;DHT22;14477;51.038;4.588;2022-11-20T06:46:42;6.20;99.90
26909;DHT22;14477;51.038;4.588;2022-11-20T06:49:08;6.10;99.90
26909;DHT22;14477;51.038;4.588;2022-11-20T06:51:34;6.10;99.90
26909;DHT22;14477;51.038;4.588;2022-11-20T06:53:59;6.10;99.90
26909;DHT22;14477;51.038;4.588;2022-11-20T06:56:26;6.10;99.90
26909;DHT22;14477;51.038;4.588;2022-11-20T06:58:52;6.20;99.90
26909;DHT22;14477;51.038;4.588;2022-11-20T07:01:17;6.20;99.90
26909;DHT22;14477;51.038;4.588;2022-11-20T07:03:43;6.20;99.90
26909;DHT22;14477;51.038;4.588;2022-11-20T07:06:09;6.30;99.90
26909;DHT22;14477;51.038;4.588;2022-11-20T07:08:35;6.30;99.90
26909;DHT22;14477;51.038;4.588;2022-11-20T07:11:03;6.30;99.90
26909;DHT22;14477;51.038;4.588;2022-11-20T07:13:29;6.40;99.90
26909;DHT22;14477;51.038;4.588;2022-11-20T07:15:58;6.40;99.90
26909;DHT22;14477;51.038;4.588;2022-11-20T07:18:24;6.40;99.90
26909;DHT22;14477;51.038;4.588;2022-11-20T07:20:49;6.40;99.90
26909;DHT22;14477;51.038;4.588;2022-11-20T07:23:15;6.40;99.90
26909;DHT22;14477;51.038;4.588;2022-11-20T07:25:41;6.50;99.90
26909;DHT22;14477;51.038;4.588;2022-11-20T07:28:06;6.50;99.90
26909;DHT22;14477;51.038;4.588;2022-11-20T07:30:32;6.50;99.90
26909;DHT22;14477;51.038;4.588;2022-11-20T07:32:58;6.60;99.90
26909;DHT22;14477;51.038;4.588;2022-11-20T07:35:24;6.60;99.90
26909;DHT22;14477;51.038;4.588;2022-11-20T07:37:50;6.60;99.90
26909;DHT22;14477;51.038;4.588;2022-11-20T07:40:17;6.60;99.90
26909;DHT22;14477;51.038;4.588;2022-11-20T07:42:53;6.60;99.90
26909;DHT22;14477;51.038;4.588;2022-11-20T07:45:20;6.70;99.90
26909;DHT22;14477;51.038;4.588;2022-11-20T07:47:46;6.70;99.90
26909;DHT22;14477;51.038;4.588;2022-11-20T07:50:12;6.70;99.90
26909;DHT22;14477;51.038;4.588;2022-11-20T07:52:39;6.80;99.90
26909;DHT22;14477;51.038;4.588;2022-11-20T07:55:05;6.80;99.90
26909;DHT22;14477;51.038;4.588;2022-11-20T07:57:31;6.80;99.90
26909;DHT22;14477;51.038;4.588;2022-11-20T07:59:56;6.90;99.90
26909;DHT22;14477;51.038;4.588;2022-11-20T08:02:22;6.90;99.90
26909;DHT22;14477;51.038;4.588;2022-11-20T08:04:48;6.90;99.90
26909;DHT22;14477;51.038;4.588;2022-11-20T08:07:13;6.90;99.90
26909;DHT22;14477;51.038;4.588;2022-11-20T08:09:39;6.90;99.90
26909;DHT22;14477;51.038;4.588;2022-11-20T08:12:05;7.00;99.90
26909;DHT22;14477;51.038;4.588;2022-11-20T08:14:49;7.00;99.90
26909;DHT22;14477;51.038;4.588;2022-11-20T08:17:15;7.10;99.90
26909;DHT22;14477;51.038;4.588;2022-11-20T08:19:41;7.10;99.90
26909;DHT22;14477;51.038;4.588;2022-11-20T08:22:06;7.10;99.90
26909;DHT22;14477;51.038;4.588;2022-11-20T08:24:32;7.20;99.90
26909;DHT22;14477;51.038;4.588;2022-11-20T08:27:00;7.20;99.90
26909;DHT22;14477;51.038;4.588;2022-11-20T08:29:26;7.20;99.90
26909;DHT22;14477;51.038;4.588;2022-11-20T08:31:52;7.30;99.90
26909;DHT22;14477;51.038;4.588;2022-11-20T08:34:18;7.30;99.90
26909;DHT22;14477;51.038;4.588;2022-11-20T08:36:44;7.30;99.90
26909;DHT22;14477;51.038;4.588;2022-11-20T08:39:13;7.40;99.90
26909;DHT22;14477;51.038;4.588;2022-11-20T08:41:39;7.40;99.90
26909;DHT22;14477;51.038;4.588;2022-11-20T08:44:06;7.40;99.90
26909;DHT22;14477;51.038;4.588;2022-11-20T08:46:35;7.50;99.90
26909;DHT22;14477;51.038;4.588;2022-11-20T08:49:05;7.50;99.90
26909;DHT22;14477;51.038;4.588;2022-11-20T08:51:32;7.60;99.90
26909;DHT22;14477;51.038;4.588;2022-11-20T08:53:57;7.60;99.90
26909;DHT22;14477;51.038;4.588;2022-11-20T08:56:23;7.60;99.90
26909;DHT22;14477;51.038;4.588;2022-11-20T08:58:50;7.60;99.90
26909;DHT22;14477;51.038;4.588;2022-11-20T09:01:18;7.60;99.90
26909;DHT22;14477;51.038;4.588;2022-11-20T09:03:44;7.70;99.90
26909;DHT22;14477;51.038;4.588;2022-11-20T09:06:09;7.70;99.90
26909;DHT22;14477;51.038;4.588;2022-11-20T09:08:35;7.80;99.90
26909;DHT22;14477;51.038;4.588;2022-11-20T09:11:02;7.80;99.90
26909;DHT22;14477;51.038;4.588;2022-11-20T09:13:28;7.80;99.90
26909;DHT22;14477;51.038;4.588;2022-11-20T09:16:14;7.80;99.90
26909;DHT22;14477;51.038;4.588;2022-11-20T09:18:40;7.80;99.90
26909;DHT22;14477;51.038;4.588;2022-11-20T09:21:09;7.90;99.90
26909;DHT22;14477;51.038;4.588;2022-11-20T09:23:39;7.90;99.90
26909;DHT22;14477;51.038;4.588;2022-11-20T09:26:12;7.90;99.90
26909;DHT22;14477;51.038;4.588;2022-11-20T09:28:39;7.90;99.90
26909;DHT22;14477;51.038;4.588;2022-11-20T09:31:06;8.00;99.90
26909;DHT22;14477;51.038;4.588;2022-11-20T09:33:31;8.00;99.90
26909;DHT22;14477;51.038;4.588;2022-11-20T09:36:00;8.00;99.90
26909;DHT22;14477;51.038;4.588;2022-11-20T09:38:25;8.00;99.90
26909;DHT22;14477;51.038;4.588;2022-11-20T09:41:05;8.10;99.90
26909;DHT22;14477;51.038;4.588;2022-11-20T09:51:59;8.20;99.90
26909;DHT22;14477;51.038;4.588;2022-11-20T09:54:34;8.30;99.90
26909;DHT22;14477;51.038;4.588;2022-11-20T09:57:13;8.30;99.90
26909;DHT22;14477;51.038;4.588;2022-11-20T09:59:51;8.30;99.90
26909;DHT22;14477;51.038;4.588;2022-11-20T10:02:43;8.40;99.90
26909;DHT22;14477;51.038;4.588;2022-11-20T10:05:45;8.40;99.90
26909;DHT22;14477;51.038;4.588;2022-11-20T10:08:22;8.40;99.90
26909;DHT22;14477;51.038;4.588;2022-11-20T10:24:02;8.60;99.90
26909;DHT22;14477;51.038;4.588;2022-11-20T10:26:43;8.60;99.90
26909;DHT22;14477;51.038;4.588;2022-11-20T10:29:19;8.70;99.90
26909;DHT22;14477;51.038;4.588;2022-11-20T10:31:52;8.70;99.90
26909;DHT22;14477;51.038;4.588;2022-11-20T10:37:11;8.80;99.90
26909;DHT22;14477;51.038;4.588;2022-11-20T10:42:55;8.90;99.90
26909;DHT22;14477;51.038;4.588;2022-11-20T10:47:54;9.00;99.90
26909;DHT22;14477;51.038;4.588;2022-11-20T10:50:22;9.10;99.90
26909;DHT22;14477;51.038;4.588;2022-11-20T10:55:45;9.20;99.90
26909;DHT22;14477;51.038;4.588;2022-11-20T11:00:47;9.30;99.90
26909;DHT22;14477;51.038;4.588;2022-11-20T11:03:29;9.40;99.90
26909;DHT22;14477;51.038;4.588;2022-11-20T11:06:32;9.50;99.90
26909;DHT22;14477;51.038;4.588;2022-11-20T11:09:04;9.60;99.90
26909;DHT22;14477;51.038;4.588;2022-11-20T11:11:34;9.70;99.90
26909;DHT22;14477;51.038;4.588;2022-11-20T11:14:07;9.80;99.90
26909;DHT22;14477;51.038;4.588;2022-11-20T11:16:33;9.90;99.90
26909;DHT22;14477;51.038;4.588;2022-11-20T11:19:07;9.90;99.90
26909;DHT22;14477;51.038;4.588;2022-11-20T11:21:37;10.00;99.90
26909;DHT22;14477;51.038;4.588;2022-11-20T11:24:20;10.10;99.90
26909;DHT22;14477;51.038;4.588;2022-11-20T11:26:58;10.20;99.90
26909;DHT22;14477;51.038;4.588;2022-11-20T11:29:25;10.20;99.90
26909;DHT22;14477;51.038;4.588;2022-11-20T11:32:20;10.20;99.90
26909;DHT22;14477;51.038;4.588;2022-11-20T11:35:17;10.30;99.90
26909;DHT22;14477;51.038;4.588;2022-11-20T11:37:45;10.40;99.90
26909;DHT22;14477;51.038;4.588;2022-11-20T11:40:13;10.40;99.90
26909;DHT22;14477;51.038;4.588;2022-11-20T11:42:43;10.40;99.90
26909;DHT22;14477;51.038;4.588;2022-11-20T11:45:14;10.50;99.90
26909;DHT22;14477;51.038;4.588;2022-11-20T11:53:00;10.70;99.90
26909;DHT22;14477;51.038;4.588;2022-11-20T12:03:38;10.80;99.90
26909;DHT22;14477;51.038;4.588;2022-11-20T12:06:25;10.90;99.90
26909;DHT22;14477;51.038;4.588;2022-11-20T12:09:07;11.00;99.90
26909;DHT22;14477;51.038;4.588;2022-11-20T12:11:54;11.00;99.90
26909;DHT22;14477;51.038;4.588;2022-11-20T12:14:34;11.10;99.90
26909;DHT22;14477;51.038;4.588;2022-11-20T12:17:02;11.10;99.90
26909;DHT22;14477;51.038;4.588;2022-11-20T12:19:33;11.10;99.90
26909;DHT22;14477;51.038;4.588;2022-11-20T12:22:20;11.10;99.90
26909;DHT22;14477;51.038;4.588;2022-11-20T12:24:59;11.10;99.90
26909;DHT22;14477;51.038;4.588;2022-11-20T12:27:48;11.10;99.90
26909;DHT22;14477;51.038;4.588;2022-11-20T12:30:19;11.20;99.90
26909;DHT22;14477;51.038;4.588;2022-11-20T12:33:27;11.10;99.90
26909;DHT22;14477;51.038;4.588;2022-11-20T12:53:33;10.70;99.90
26909;DHT22;14477;51.038;4.588;2022-11-20T13:01:50;10.50;99.90
26909;DHT22;14477;51.038;4.588;2022-11-20T13:07:18;10.40;99.90
26909;DHT22;14477;51.038;4.588;2022-11-20T13:09:48;10.40;99.90
26909;DHT22;14477;51.038;4.588;2022-11-20T13:12:24;10.30;99.90
26909;DHT22;14477;51.038;4.588;2022-11-20T13:14:55;10.30;99.90
26909;DHT22;14477;51.038;4.588;2022-11-20T13:17:43;10.30;99.90
26909;DHT22;14477;51.038;4.588;2022-11-20T13:20:18;10.20;99.90
26909;DHT22;14477;51.038;4.588;2022-11-20T13:22:47;10.20;99.90
26909;DHT22;14477;51.038;4.588;2022-11-20T13:25:31;10.20;99.90
26909;DHT22;14477;51.038;4.588;2022-11-20T13:27:59;10.20;99.90
26909;DHT22;14477;51.038;4.588;2022-11-20T13:30:26;10.20;99.90
26909;DHT22;14477;51.038;4.588;2022-11-20T13:33:06;10.20;99.90
26909;DHT22;14477;51.038;4.588;2022-11-20T13:35:35;10.20;99.90
26909;DHT22;14477;51.038;4.588;2022-11-20T13:38:03;10.20;99.90
26909;DHT22;14477;51.038;4.588;2022-11-20T13:40:30;10.30;99.90
26909;DHT22;14477;51.038;4.588;2022-11-20T13:45:33;10.30;99.90
26909;DHT22;14477;51.038;4.588;2022-11-20T13:48:04;10.30;99.90
26909;DHT22;14477;51.038;4.588;2022-11-20T13:56:23;10.30;99.90
26909;DHT22;14477;51.038;4.588;2022-11-20T14:02:14;10.20;99.90
26909;DHT22;14477;51.038;4.588;2022-11-20T14:04:44;10.20;99.90
26909;DHT22;14477;51.038;4.588;2022-11-20T14:07:11;10.20;99.90
26909;DHT22;14477;51.038;4.588;2022-11-20T14:09:37;10.20;99.90
26909;DHT22;14477;51.038;4.588;2022-11-20T14:12:04;10.20;99.90
26909;DHT22;14477;51.038;4.588;2022-11-20T14:14:30;10.10;99.90
26909;DHT22;14477;51.038;4.588;2022-11-20T14:17:32;10.10;99.90
26909;DHT22;14477;51.038;4.588;2022-11-20T14:20:06;10.10;99.90
26909;DHT22;14477;51.038;4.588;2022-11-20T14:22:36;10.10;99.90
26909;DHT22;14477;51.038;4.588;2022-11-20T14:27:38;10.10;99.90
26909;DHT22;14477;51.038;4.588;2022-11-20T14:30:04;10.10;99.90
26909;DHT22;14477;51.038;4.588;2022-11-20T14:32:31;10.10;99.90
26909;DHT22;14477;51.038;4.588;2022-11-20T14:35:13;10.10;99.90
26909;DHT22;14477;51.038;4.588;2022-11-20T14:37:40;10.10;99.90
26909;DHT22;14477;51.038;4.588;2022-11-20T14:40:22;10.10;99.90
26909;DHT22;14477;51.038;4.588;2022-11-20T14:42:49;10.10;99.90
26909;DHT22;14477;51.038;4.588;2022-11-20T14:45:15;10.10;99.90
26909;DHT22;14477;51.038;4.588;2022-11-20T14:47:41;10.10;99.90
26909;DHT22;14477;51.038;4.588;2022-11-20T14:50:20;10.10;99.90
26909;DHT22;14477;51.038;4.588;2022-11-20T14:53:00;10.10;99.90
26909;DHT22;14477;51.038;4.588;2022-11-20T14:55:27;10.10;99.90
26909;DHT22;14477;51.038;4.588;2022-11-20T14:58:02;10.10;99.90
26909;DHT22;14477;51.038;4.588;2022-11-20T15:00:30;10.10;99.90
26909;DHT22;14477;51.038;4.588;2022-11-20T15:02:56;10.10;99.90
26909;DHT22;14477;51.038;4.588;2022-11-20T15:05:26;10.10;99.90
26909;DHT22;14477;51.038;4.588;2022-11-20T15:08:13;10.10;99.90
26909;DHT22;14477;51.038;4.588;2022-11-20T15:10:50;10.20;99.90
26909;DHT22;14477;51.038;4.588;2022-11-20T15:15:54;10.20;99.90
26909;DHT22;14477;51.038;4.588;2022-11-20T15:18:38;10.20;99.90
26909;DHT22;14477;51.038;4.588;2022-11-20T15:21:10;10.20;99.90
26909;DHT22;14477;51.038;4.588;2022-11-20T15:23:36;10.20;99.90
26909;DHT22;14477;51.038;4.588;2022-11-20T15:26:05;10.20;99.90
26909;DHT22;14477;51.038;4.588;2022-11-20T15:30:58;10.30;99.90
26909;DHT22;14477;51.038;4.588;2022-11-20T15:33:23;10.20;99.90
26909;DHT22;14477;51.038;4.588;2022-11-20T15:35:49;10.30;99.90
26909;DHT22;14477;51.038;4.588;2022-11-20T15:38:15;10.30;99.90
26909;DHT22;14477;51.038;4.588;2022-11-20T15:40:40;10.30;99.90
26909;DHT22;14477;51.038;4.588;2022-11-20T15:43:06;10.30;99.90
26909;DHT22;14477;51.038;4.588;2022-11-20T15:46:05;10.30;99.90
26909;DHT22;14477;51.038;4.588;2022-11-20T15:48:45;10.30;99.90
26909;DHT22;14477;51.038;4.588;2022-11-20T15:51:35;10.30;99.90
26909;DHT22;14477;51.038;4.588;2022-11-20T15:54:14;10.30;99.90
26909;DHT22;14477;51.038;4.588;2022-11-20T15:56:40;10.40;99.90
26909;DHT22;14477;51.038;4.588;2022-11-20T15:59:05;10.30;99.90
26909;DHT22;14477;51.038;4.588;2022-11-20T16:01:31;10.30;99.90
26909;DHT22;14477;51.038;4.588;2022-11-20T16:03:57;10.30;99.90
26909;DHT22;14477;51.038;4.588;2022-11-20T16:06:22;10.30;99.90
26909;DHT22;14477;51.038;4.588;2022-11-20T16:08:48;10.40;99.90
26909;DHT22;14477;51.038;4.588;2022-11-20T16:11:16;10.40;99.90
26909;DHT22;14477;51.038;4.588;2022-11-20T16:13:42;10.40;99.90
26909;DHT22;14477;51.038;4.588;2022-11-20T16:16:33;10.40;99.90
26909;DHT22;14477;51.038;4.588;2022-11-20T16:18:59;10.40;99.90
26909;DHT22;14477;51.038;4.588;2022-11-20T16:21:26;10.40;99.90
26909;DHT22;14477;51.038;4.588;2022-11-20T16:24:06;10.40;99.90
26909;DHT22;14477;51.038;4.588;2022-11-20T16:26:32;10.40;99.90
26909;DHT22;14477;51.038;4.588;2022-11-20T16:28:59;10.40;99.90
26909;DHT22;14477;51.038;4.588;2022-11-20T16:31:25;10.50;99.90
26909;DHT22;14477;51.038;4.588;2022-11-20T16:33:52;10.40;99.90
26909;DHT22;14477;51.038;4.588;2022-11-20T16:36:18;10.40;99.90
26909;DHT22;14477;51.038;4.588;2022-11-20T16:38:44;10.40;99.90
26909;DHT22;14477;51.038;4.588;2022-11-20T16:41:10;10.40;99.90
26909;DHT22;14477;51.038;4.588;2022-11-20T16:43:46;10.40;99.90
26909;DHT22;14477;51.038;4.588;2022-11-20T16:46:13;10.40;99.90
26909;DHT22;14477;51.038;4.588;2022-11-20T16:48:39;10.40;99.90
26909;DHT22;14477;51.038;4.588;2022-11-20T16:51:11;10.40;99.90
26909;DHT22;14477;51.038;4.588;2022-11-20T16:53:38;10.30;99.90
26909;DHT22;14477;51.038;4.588;2022-11-20T16:56:15;10.30;99.90
26909;DHT22;14477;51.038;4.588;2022-11-20T16:58:42;10.40;99.90
26909;DHT22;14477;51.038;4.588;2022-11-20T17:01:09;10.30;99.90
26909;DHT22;14477;51.038;4.588;2022-11-20T17:03:39;10.40;99.90
26909;DHT22;14477;51.038;4.588;2022-11-20T17:06:16;10.40;99.90
26909;DHT22;14477;51.038;4.588;2022-11-20T17:08:43;10.40;99.90
26909;DHT22;14477;51.038;4.588;2022-11-20T17:11:11;10.40;99.90
26909;DHT22;14477;51.038;4.588;2022-11-20T17:13:38;10.40;99.90
26909;DHT22;14477;51.038;4.588;2022-11-20T17:16:06;10.40;99.90
26909;DHT22;14477;51.038;4.588;2022-11-20T17:18:32;10.40;99.90
26909;DHT22;14477;51.038;4.588;2022-11-20T17:20:59;10.40;99.90
26909;DHT22;14477;51.038;4.588;2022-11-20T17:23:29;10.40;99.90
26909;DHT22;14477;51.038;4.588;2022-11-20T17:26:07;10.40;99.90
26909;DHT22;14477;51.038;4.588;2022-11-20T17:28:34;10.40;99.90
26909;DHT22;14477;51.038;4.588;2022-11-20T17:31:08;10.40;99.90